Current Weather Conditions from Arkansas, Oklahoma, Missouri & Kansas

As well as selected U.S. cities associated with XNA Flights


KVBT - Bentonville Arkansas, Airport
Updated: Tue, Jul-Tue-2020 4:56pm
Clear
Clear
 Wind from SSE
Wind: SSE 10 mph , 17 km/h
Temperature: 90°F , 32°C
Heat Index: 99°F , 37°C
Dew Point: 73°F , 23°C
Humidity: 59%
Barometer: 29.92 inHg , 1013.2 hPa
Clouds: Clear
Visibility: 10 miles , 16 km
2020/07/14 21:56 KVBT 142156Z AUTO 15009KT 10SM CLR 32/23 A2992 RMK AO2 SLP118 T03170233 TSNO
KROG - Rogers Arkansas, Airport
Updated: Tue, Jul-Tue-2020 4:58pm
Clear
Clear
 Wind from SSE
Wind: SSE 13 mph , 20 km/h
Temperature: 90°F , 32°C
Heat Index: 97°F , 36°C
Dew Point: 72°F , 22°C
Humidity: 55%
Barometer: 29.91 inHg , 1012.9 hPa
Clouds: Clear
Visibility: 10 miles , 16 km
2020/07/14 21:58 KROG 142158Z 15011KT 10SM CLR 32/22 A2991 RMK AO2 SLP110 T03170217
KXNA - Northwest Arkansas Regional Airport
Updated: Tue, Jul-Tue-2020 4:53pm
Clear
Clear
 Wind from SSE
Wind: SSE 13 mph , 20 km/h
Temperature: 90°F , 32°C
Heat Index: 96°F , 36°C
Dew Point: 70°F , 21°C
Humidity: 52%
Barometer: 29.90 inHg , 1012.5 hPa
Clouds: Clear
Visibility: 10 miles , 16 km
2020/07/14 21:53 KXNA 142153Z 16011KT 10SM CLR 32/21 A2990 RMK AO2 SLP107 T03170211
 
KSLG - Siloam Spring Arkansas, Airport
Updated: Tue, Jul-Tue-2020 4:56pm
Clear
Clear
 Wind from SE
Wind: SE 13 mph , 20 km/h
Temperature: 91°F , 33°C
Heat Index: 102°F , 39°C
Dew Point: 75°F , 24°C
Humidity: 59%
Barometer: 29.89 inHg , 1012.2 hPa
Clouds: Clear
Visibility: 10 miles , 16 km
2020/07/14 21:56 KSLG 142156Z AUTO 14011KT 10SM CLR 33/24 A2989 RMK AO2 SLP106 T03330244 TSNO
KASG - Springdale, Arkansas, Airport
Updated: Tue, Jul-Tue-2020 4:48pm
Clear
Clear
 Wind from SE
Wind: SE 9 mph , 15 km/h
Temperature: 90°F , 32°C
Heat Index: 99°F , 37°C
Dew Point: 73°F , 23°C
Humidity: 59%
Barometer: 29.92 inHg , 1013.2 hPa
Clouds: Clear
Visibility: 10 miles , 16 km
2020/07/14 21:48 KASG 142148Z 14008KT 10SM CLR 32/23 A2992
KFYV - Fayetteville Arkansas, Airport
Updated: Tue, Jul-Tue-2020 4:53pm
Clear
Clear
 Wind from SE
Wind: SE 7 mph , 11 km/h
Temperature: 90°F , 32°C
Heat Index: 99°F , 37°C
Dew Point: 73°F , 23°C
Humidity: 59%
Barometer: 29.89 inHg , 1012.2 hPa
Clouds: Clear
Visibility: 10 miles , 16 km
2020/07/14 21:53 KFYV 142153Z 14006KT 10SM CLR 32/23 A2989 RMK AO2 SLP105 T03170233
 
KHRO - Harrison, Arkansas
Updated: Tue, Jul-Tue-2020 4:53pm
Few Clouds
Few Clouds
 Wind from SSE
Wind: SSE 15 mph , 24 km/h, Gust: 21 mph , 33 km/h
Temperature: 91°F , 33°C
Heat Index: 102°F , 39°C
Dew Point: 75°F , 24°C
Humidity: 59%
Barometer: 29.93 inHg , 1013.5 hPa
Clouds: Few Clouds
Visibility: 10 miles , 16 km
Cloud details: Few Clouds 3800 ft
2020/07/14 21:53 KHRO 142153Z AUTO 15013G18KT 10SM FEW038 33/24 A2993 RMK AO2 SLP119 T03280239 $
KFLP - Flippin, Arkansas
Updated: Tue, Jul-Tue-2020 4:56pm
Mostly cloudy
Mostly cloudy
 Wind from SE
Wind: SE 8 mph , 13 km/h
Temperature: 90°F , 32°C
Heat Index: 101°F , 38°C
Dew Point: 75°F , 24°C
Humidity: 63%
Barometer: 29.93 inHg , 1013.5 hPa
Clouds: Mostly cloudy
Visibility: 10 miles , 16 km
Cloud details: Mostly cloudy 3800 ft
2020/07/14 21:56 KFLP 142156Z AUTO 13007KT 10SM BKN038 32/24 A2993 RMK AO2 SLP124 T03170244
KBPK - Mountain Home, Arkansas
Updated: Tue, Jul-Tue-2020 4:53pm
Partly cloudy
Partly cloudy
 Wind from S
Wind: S 9 mph , 15 km/h
Temperature: 90°F , 32°C
Heat Index: 99°F , 37°C
Dew Point: 73°F , 23°C
Humidity: 59%
Barometer: 29.94 inHg , 1013.9 hPa
Clouds: Partly cloudy
Visibility: 10 miles , 16 km
Cloud details: Partly cloudy 3600 ft
2020/07/14 21:53 KBPK 142153Z AUTO 17008KT 10SM SCT036 32/23 A2994 RMK AO2 SLP125 T03170233
 
KCCA - Clinton, Arkansas
Updated: Tue, Jul-Tue-2020 4:55pm
Mostly cloudy
Mostly cloudy
 Wind from E
Wind: E 6 mph , 9 km/h
Temperature: 90°F , 32°C
Heat Index: 104°F , 40°C
Dew Point: 77°F , 25°C
Humidity: 67%
Barometer: 29.93 inHg , 1013.5 hPa
Clouds: Mostly cloudy
Visibility: 10 miles , 16 km
Cloud details: Mostly cloudy 4000 ft
Mostly cloudy 4900 ft
2020/07/14 21:55 KCCA 142155Z AUTO 10005KT 10SM BKN040 BKN049 32/25 A2993 RMK AO2
KRUE - Russellville, Arkansas
Updated: Tue, Jul-Tue-2020 4:53pm
Few Clouds
Few Clouds
 Wind from SE
Wind: SE 7 mph , 11 km/h
Temperature: 95°F , 35°C
Heat Index: 110°F , 43°C
Dew Point: 77°F , 25°C
Humidity: 56%
Barometer: 29.88 inHg , 1011.9 hPa
Clouds: Few Clouds
Visibility: 10 miles , 16 km
Cloud details: Few Clouds 5500 ft
2020/07/14 21:53 KRUE 142153Z AUTO 13006KT 10SM FEW055 35/25 A2988 RMK AO2 SLP109 T03500250
KBVX - Batesville, Arkansa
Updated: Tue, Jul-Tue-2020 4:56pm
Few Clouds
Few Clouds
 Wind from ESE
Wind: ESE 12 mph , 19 km/h
Temperature: 90°F , 32°C
Heat Index: 99°F , 37°C
Dew Point: 73°F , 23°C
Humidity: 59%
Barometer: 29.96 inHg , 1014.6 hPa
Clouds: Few Clouds
Visibility: 10 miles , 16 km
Cloud details: Few Clouds 3300 ft
2020/07/14 21:56 KBVX 142156Z AUTO 12010KT 10SM FEW033 32/23 A2996 RMK AO2 SLP139 T03220233
 
KBYH - Blytheville, Arkansas
Updated: Tue, Jul-Tue-2020 3:50pm
Few Clouds
Few Clouds
 Wind from SSE
Wind: SSE 5 mph , 7 km/h
Temperature: 93°F , 34°C
Dew Point: 63°F , 17°C
Humidity: 36%
Barometer: 29.97 inHg , 1014.9 hPa
Clouds: Few Clouds
Visibility: 10 miles , 16 km
Cloud details: Few Clouds 6000 ft
2020/07/14 20:50 KBYH 142050Z 15004KT 10SM FEW060 34/17 A2997 RMK LAST
KM19 - Newport, Arkansas
Updated: Tue, Jul-Tue-2020 4:56pm
Clear
Clear
 Wind from S
Wind: S 8 mph , 13 km/h
Temperature: 91°F , 33°C
Heat Index: 102°F , 39°C
Dew Point: 75°F , 24°C
Humidity: 59%
Barometer: 29.95 inHg , 1014.2 hPa
Clouds: Clear
Visibility: 10 miles , 16 km
2020/07/14 21:56 KM19 142156Z AUTO 17007KT 10SM CLR 33/24 A2995 RMK AO2 SLP138 T03280239
KSRC - Searcy, Arkansas
Updated: Tue, Jul-Tue-2020 4:56pm
Overcast
Overcast
 Wind from S
Wind: S 7 mph , 11 km/h
Temperature: 93°F , 34°C
Heat Index: 110°F , 43°C
Dew Point: 79°F , 26°C
Humidity: 63%
Barometer: 29.95 inHg , 1014.2 hPa
Clouds: Overcast
Visibility: 10 miles , 16 km
Cloud details: Few Clouds 3100 ft
Overcast 4500 ft
2020/07/14 21:56 KSRC 142156Z AUTO 17006KT 10SM FEW031 OVC045 34/26 A2995 RMK AO2 SLP137 T03390261
 
KARG - Walnut Ridge, Arkansas
Updated: Tue, Jul-Tue-2020 4:56pm
Few Clouds
Few Clouds
 Wind from ESE
Wind: ESE 9 mph , 15 km/h
Temperature: 91°F , 33°C
Heat Index: 100°F , 38°C
Dew Point: 73°F , 23°C
Humidity: 56%
Barometer: 29.94 inHg , 1013.9 hPa
Clouds: Few Clouds
Visibility: 10 miles , 16 km
Cloud details: Few Clouds 5000 ft
2020/07/14 21:56 KARG 142156Z AUTO 12008KT 10SM FEW050 33/23 A2994 RMK AO2 SLP138 T03330228 PNO $
KJBR - Jonesboro, Arkansas
Updated: Tue, Jul-Tue-2020 4:53pm
Clear
Clear
 Wind from SSE
Wind: SSE 9 mph , 15 km/h
Temperature: 91°F , 33°C
Heat Index: 96°F , 36°C
Dew Point: 70°F , 21°C
Humidity: 49%
Barometer: 29.95 inHg , 1014.2 hPa
Clouds: Clear
Visibility: 10 miles , 16 km
2020/07/14 21:53 KJBR 142153Z AUTO 16008KT 10SM CLR 33/21 A2995 RMK AO2 SLP140 T03330211 TSNO $
K4M9 - Corning, Arkansas
Updated: Tue, Jul-Tue-2020 4:55pm
Few Clouds
Few Clouds
 Wind from SSE
Wind: SSE 6 mph , 9 km/h, Gust: 12 mph , 19 km/h
Temperature: 93°F , 34°C
Heat Index: 105°F , 41°C
Dew Point: 75°F , 24°C
Humidity: 56%
Barometer: 29.95 inHg , 1014.2 hPa
Clouds: Few Clouds
Visibility: 10 miles , 16 km
Cloud details: Few Clouds 5000 ft
2020/07/14 21:55 K4M9 142155Z AUTO 16005G10KT 10SM FEW050 34/24 A2995 RMK AO2 PWINO
 
KLRF - Little Rock Afb, Arkansas
Updated: Tue, Jul-Tue-2020 4:56pm
Mostly cloudy
Mostly cloudy
 Wind from SE
Wind: SE 7 mph , 11 km/h
Temperature: 93°F , 34°C
Heat Index: 110°F , 43°C
Dew Point: 79°F , 26°C
Humidity: 63%
Barometer: 29.93 inHg , 1013.5 hPa
Clouds: Mostly cloudy
Visibility: 10 miles , 16 km
Cloud details: Mostly cloudy 3700 ft
Mostly cloudy 20000 ft
2020/07/14 21:56 KLRF 142156Z AUTO 13006KT 10SM BKN037 BKN200 34/26 A2993 RMK AO2 SLP135 T03360258
KLIT - Little Rock, Arkansas
Updated: Tue, Jul-Tue-2020 4:53pm
Partly cloudy
Partly cloudy
 Wind from SSE
Wind: SSE 10 mph , 17 km/h
Temperature: 91°F , 33°C
Heat Index: 104°F , 40°C
Dew Point: 77°F , 25°C
Humidity: 63%
Barometer: 29.93 inHg , 1013.5 hPa
Clouds: Partly cloudy
Visibility: 10 miles , 16 km
Cloud details: Partly cloudy 3500 ft
Partly cloudy 25000 ft
2020/07/14 21:53 KLIT 142153Z 15009KT 10SM SCT035 SCT250 33/25 A2993 RMK AO2 SLP133 T03330250
KSGT - Stuttgart, Arkansas
Updated: Tue, Jul-Tue-2020 4:56pm
Few Clouds
Few Clouds
 Wind from SE
Wind: SE 8 mph , 13 km/h
Temperature: 93°F , 34°C
Heat Index: 110°F , 43°C
Dew Point: 79°F , 26°C
Humidity: 63%
Barometer: 29.95 inHg , 1014.2 hPa
Clouds: Few Clouds
Visibility: 10 miles , 16 km
Cloud details: Few Clouds 100 ft
2020/07/14 21:56 KSGT 142156Z AUTO 14007KT 10SM FEW001 34/26 A2995 RMK AO2 SLP140 T03390256
 
KAWM - West Memphis, Arkansas
Updated: Tue, Jul-Tue-2020 4:53pm
Clear
Clear
 Wind from varies
Wind: varies 5 mph , 7 km/h
Temperature: 93°F , 34°C
Heat Index: 99°F , 37°C
Dew Point: 70°F , 21°C
Humidity: 47%
Barometer: 29.95 inHg , 1014.2 hPa
Clouds: Clear
Visibility: 10 miles , 16 km
2020/07/14 21:53 KAWM 142153Z AUTO VRB04KT 10SM CLR 34/21 A2995 RMK AO2 SLP136 T03390206
KFSM - Fort Smith, Arkansas
Updated: Tue, Jul-Tue-2020 4:53pm
Clear
Clear
 Wind from SSE
Wind: SSE 10 mph , 17 km/h, Gust: 18 mph , 30 km/h
Temperature: 95°F , 35°C
Heat Index: 105°F , 41°C
Dew Point: 73°F , 23°C
Humidity: 50%
Barometer: 29.85 inHg , 1010.8 hPa
Clouds: Clear
Visibility: 10 miles , 16 km
2020/07/14 21:53 KFSM 142153Z 16009G16KT 10SM CLR 35/23 A2985 RMK AO2 SLP099 T03500228
KMWT - Mount Ida, Arkansas
Updated: Tue, Jul-Tue-2020 4:53pm
Clear
Clear
 Wind from varies
Wind: varies 7 mph , 11 km/h
Temperature: 93°F , 34°C
Heat Index: 99°F , 37°C
Dew Point: 70°F , 21°C
Humidity: 47%
Barometer: 29.90 inHg , 1012.5 hPa
Clouds: Clear
Visibility: 10 miles , 16 km
2020/07/14 21:53 KMWT 142153Z AUTO VRB06KT 10SM CLR 34/21 A2990 RMK AO2 SLP111 T03440211
 
KMEZ - Mena, Arkansas
Updated: Tue, Jul-Tue-2020 4:55pm
Clear
Clear
 Wind from ESE
Wind: ESE 5 mph , 7 km/h
Temperature: 91°F , 33°C
Heat Index: 100°F , 38°C
Dew Point: 73°F , 23°C
Humidity: 56%
Barometer: 29.93 inHg , 1013.5 hPa
Clouds: Clear
Visibility: 10 miles , 16 km
2020/07/14 21:55 KMEZ 142155Z AUTO 11004KT 10SM CLR 33/23 A2993 RMK AO2
KHOT - Hot Springs, Arkansas
Updated: Tue, Jul-Tue-2020 4:53pm
Clear
Clear
 Wind from SE
Wind: SE 7 mph , 11 km/h
Temperature: 93°F , 34°C
Heat Index: 105°F , 41°C
Dew Point: 75°F , 24°C
Humidity: 56%
Barometer: 29.92 inHg , 1013.2 hPa
Clouds: Clear
Visibility: 10 miles , 16 km
2020/07/14 21:53 KHOT 142153Z AUTO 14006KT 10SM CLR 34/24 A2992 RMK AO2 SLP125 T03440239
KADF - Arkadelphia, Arkansas
Updated: Sun, Jul-Sun-2020 3:56am
NOT Current
Clear
Clear
 Wind from W
Wind: W 20 mph , 31 km/h, Gust: 29 mph , 46 km/h
Temperature: 82°F , 28°C
Heat Index: 84°F , 29°C
Dew Point: 64°F , 18°C
Humidity: 55%
Barometer: 29.86 inHg , 1011.2 hPa
Clouds: Clear
Visibility: 10 miles , 16 km
2020/07/12 08:56 KADF 120856Z AUTO 28017G25KT 10SM CLR 28/18 A2986 RMK AO2 SLP109 6//// T02830183 58032 PNO $
 
KSGT - Stuttgart, Arkansas
Updated: Tue, Jul-Tue-2020 4:56pm
Few Clouds
Few Clouds
 Wind from SE
Wind: SE 8 mph , 13 km/h
Temperature: 93°F , 34°C
Heat Index: 110°F , 43°C
Dew Point: 79°F , 26°C
Humidity: 63%
Barometer: 29.95 inHg , 1014.2 hPa
Clouds: Few Clouds
Visibility: 10 miles , 16 km
Cloud details: Few Clouds 100 ft
2020/07/14 21:56 KSGT 142156Z AUTO 14007KT 10SM FEW001 34/26 A2995 RMK AO2 SLP140 T03390256
KPBF - Pine Bluff, Arkansas
Updated: Tue, Jul-Tue-2020 4:53pm
Mostly cloudy
Mostly cloudy
 Wind from E
Wind: E 12 mph , 19 km/h
Temperature: 91°F , 33°C
Heat Index: 107°F , 42°C
Dew Point: 79°F , 26°C
Humidity: 67%
Barometer: 29.93 inHg , 1013.5 hPa
Clouds: Mostly cloudy
Visibility: 10 miles , 16 km
Cloud details: Partly cloudy 3700 ft
Mostly cloudy 4400 ft
2020/07/14 21:53 KPBF 142153Z AUTO 10010KT 10SM SCT037 BKN044 33/26 A2993 RMK AO2 SLP134 T03330256
KSRC - Searcy, Arkansas
Updated: Tue, Jul-Tue-2020 4:56pm
Overcast
Overcast
 Wind from S
Wind: S 7 mph , 11 km/h
Temperature: 93°F , 34°C
Heat Index: 110°F , 43°C
Dew Point: 79°F , 26°C
Humidity: 63%
Barometer: 29.95 inHg , 1014.2 hPa
Clouds: Overcast
Visibility: 10 miles , 16 km
Cloud details: Few Clouds 3100 ft
Overcast 4500 ft
2020/07/14 21:56 KSRC 142156Z AUTO 17006KT 10SM FEW031 OVC045 34/26 A2995 RMK AO2 SLP137 T03390261
 
KRUE - Russellville, Arkansas
Updated: Tue, Jul-Tue-2020 4:53pm
Few Clouds
Few Clouds
 Wind from SE
Wind: SE 7 mph , 11 km/h
Temperature: 95°F , 35°C
Heat Index: 110°F , 43°C
Dew Point: 77°F , 25°C
Humidity: 56%
Barometer: 29.88 inHg , 1011.9 hPa
Clouds: Few Clouds
Visibility: 10 miles , 16 km
Cloud details: Few Clouds 5500 ft
2020/07/14 21:53 KRUE 142153Z AUTO 13006KT 10SM FEW055 35/25 A2988 RMK AO2 SLP109 T03500250
KCCA - Clinton, Arkansas
Updated: Tue, Jul-Tue-2020 4:55pm
Mostly cloudy
Mostly cloudy
 Wind from E
Wind: E 6 mph , 9 km/h
Temperature: 90°F , 32°C
Heat Index: 104°F , 40°C
Dew Point: 77°F , 25°C
Humidity: 67%
Barometer: 29.93 inHg , 1013.5 hPa
Clouds: Mostly cloudy
Visibility: 10 miles , 16 km
Cloud details: Mostly cloudy 4000 ft
Mostly cloudy 4900 ft
2020/07/14 21:55 KCCA 142155Z AUTO 10005KT 10SM BKN040 BKN049 32/25 A2993 RMK AO2
KLLQ - Monticello, Arkansas
Updated: Tue, Jul-Tue-2020 4:53pm
Clear
Clear
 Wind from SSE
Wind: SSE 8 mph , 13 km/h
Temperature: 82°F , 28°C
Heat Index: 86°F , 30°C
Dew Point: 72°F , 22°C
Humidity: 70%
Barometer: 29.96 inHg , 1014.6 hPa
Clouds: Clear
Visibility: 10 miles , 16 km
2020/07/14 21:53 KLLQ 142153Z AUTO 15007KT 10SM CLR 28/22 A2996 RMK AO2 RAB02E18 SLP142 P0000 T02780217
 
KCDH - Camden, Arkansas
Updated: Tue, Jul-Tue-2020 4:55pm
Clear
Clear
 Wind from N
Wind: N 8 mph , 13 km/h
Temperature: 97°F , 36°C
Heat Index: 150°F , 66°C
Dew Point: 91°F , 33°C
Humidity: 85%
Barometer: 29.91 inHg , 1012.9 hPa
Clouds: Clear
Visibility: 8 miles , 13 km
2020/07/14 21:55 KCDH 142155Z AUTO 01007KT 8SM CLR 36/33 A2991 RMK AO2
KM19 - Newport, Arkansas
Updated: Tue, Jul-Tue-2020 4:56pm
Clear
Clear
 Wind from S
Wind: S 8 mph , 13 km/h
Temperature: 91°F , 33°C
Heat Index: 102°F , 39°C
Dew Point: 75°F , 24°C
Humidity: 59%
Barometer: 29.95 inHg , 1014.2 hPa
Clouds: Clear
Visibility: 10 miles , 16 km
2020/07/14 21:56 KM19 142156Z AUTO 17007KT 10SM CLR 33/24 A2995 RMK AO2 SLP138 T03280239
KDEQ - De Queen, Arkansas
Updated: Tue, Jul-Tue-2020 4:53pm
Clear
Clear
 Wind from SSE
Wind: SSE 7 mph , 11 km/h
Temperature: 93°F , 34°C
Heat Index: 100°F , 38°C
Dew Point: 72°F , 22°C
Humidity: 49%
Barometer: 29.87 inHg , 1011.5 hPa
Clouds: Clear
Visibility: 10 miles , 16 km
2020/07/14 21:53 KDEQ 142153Z AUTO 16006KT 10SM CLR 34/22 A2987 RMK AO1 SLP107 T03440217
 
KTXK - Texarkana, Arkansas
Updated: Tue, Jul-Tue-2020 4:53pm
Clear
Clear
 Wind from SSE
Wind: SSE 7 mph , 11 km/h
Temperature: 93°F , 34°C
Heat Index: 100°F , 38°C
Dew Point: 72°F , 22°C
Humidity: 49%
Barometer: 29.91 inHg , 1012.9 hPa
Clouds: Clear
Visibility: 10 miles , 16 km
2020/07/14 21:53 KTXK 142153Z 16006KT 10SM CLR 34/22 A2991 RMK AO2 SLP123 T03390217
KELD - El Dorado, Arkansas
Updated: Tue, Jul-Tue-2020 4:53pm
Clear
Clear
 Wind from SSE
Wind: SSE 12 mph , 19 km/h
Temperature: 95°F , 35°C
Heat Index: 103°F , 39°C
Dew Point: 72°F , 22°C
Humidity: 47%
Barometer: 29.93 inHg , 1013.5 hPa
Clouds: Clear
Visibility: 10 miles , 16 km
2020/07/14 21:53 KELD 142153Z AUTO 15010KT 10SM CLR 35/22 A2993 RMK AO2 SLP129 T03500222
KCSM - Clinton, Oklahoma
Updated: Tue, Jul-Tue-2020 4:53pm
Clear
Clear
 Wind from S
Wind: S 21 mph , 33 km/h, Gust: 28 mph , 44 km/h
Temperature: 106°F , 41°C
Dew Point: 52°F , 11°C
Humidity: 17%
Barometer: 29.76 inHg , 1007.8 hPa
Clouds: Clear
Visibility: 10 miles , 16 km
2020/07/14 21:53 KCSM 142153Z 17018G24KT 10SM CLR 41/11 A2976 RMK AO2 PK WND 17027/2123 SLP044 T04110111
 
KHBR - Hobart, Oklahoma
Updated: Tue, Jul-Tue-2020 4:53pm
Clear
Clear
 Wind from S
Wind: S 18 mph , 30 km/h, Gust: 30 mph , 48 km/h
Temperature: 108°F , 42°C
Dew Point: 55°F , 13°C
Humidity: 18%
Barometer: 29.74 inHg , 1007.1 hPa
Clouds: Clear
Visibility: 10 miles , 16 km
2020/07/14 21:53 KHBR 142153Z AUTO 19016G26KT 10SM CLR 42/13 A2974 RMK AO2 PK WND 17032/2115 SLP044 T04220128
KLTS - Altus Afb, Oklahoma
Updated: Tue, Jul-Tue-2020 4:56pm
Clear
Clear
 Wind from SSE
Wind: SSE 16 mph , 26 km/h, Gust: 24 mph , 39 km/h
Temperature: 111°F , 44°C
Dew Point: 52°F , 11°C
Humidity: 14%
Barometer: 29.72 inHg , 1006.4 hPa
Clouds: Clear
Visibility: 10 miles , 16 km
2020/07/14 21:56 KLTS 142156Z AUTO 16014G21KT 10SM CLR 44/11 A2972 RMK AO2 SLP042 T04350112 $
KFSI - Fort Sill, Oklahoma
Updated: Tue, Jul-Tue-2020 4:56pm
Clear
Clear
 Wind from S
Wind: S 21 mph , 33 km/h, Gust: 28 mph , 44 km/h
Temperature: 100°F , 38°C
Dew Point: 66°F , 19°C
Humidity: 33%
Barometer: 29.75 inHg , 1007.5 hPa
Clouds: Clear
Visibility: 10 miles , 16 km
2020/07/14 21:56 KFSI 142156Z AUTO 17018G24KT 10SM CLR 38/19 A2975 RMK AO2 SLP058 T03770191 $
 
KGAG - Gage, Oklahoma
Updated: Tue, Jul-Tue-2020 4:53pm
Clear
Clear
 Wind from NE
Wind: NE 20 mph , 31 km/h, Gust: 25 mph , 41 km/h
Temperature: 106°F , 41°C
Dew Point: 63°F , 17°C
Humidity: 25%
Barometer: 29.77 inHg , 1008.1 hPa
Clouds: Clear
Visibility: 10 miles , 16 km
2020/07/14 21:53 KGAG 142153Z AUTO 05017G22KT 10SM CLR 41/17 A2977 RMK AO2 SLP042 T04060167
KWWR - Woodward, Oklahoma
Updated: Tue, Jul-Tue-2020 4:55pm
Clear
Clear
 Wind from NNE
Wind: NNE 15 mph , 24 km/h
Temperature: 99°F , 37°C
Dew Point: 64°F , 18°C
Humidity: 33%
Barometer: 29.81 inHg , 1009.5 hPa
Clouds: Clear
Visibility: 10 miles , 16 km
2020/07/14 21:55 KWWR 142155Z AUTO 03013KT 10SM CLR 37/18 A2981 RMK AO2
KLAW - Lawton, Oklahoma
Updated: Tue, Jul-Tue-2020 4:53pm
Clear
Clear
 Wind from SSE
Wind: SSE 17 mph , 28 km/h, Gust: 26 mph , 43 km/h
Temperature: 102°F , 39°C
Dew Point: 64°F , 18°C
Humidity: 29%
Barometer: 29.75 inHg , 1007.5 hPa
Clouds: Clear
Visibility: 10 miles , 16 km
2020/07/14 21:53 KLAW 142153Z 16015G23KT 10SM CLR 39/18 A2975 RMK AO2 PK WND 13027/2120 SLP056 T03940178
 
KOKC - Oklahoma City, Oklahoma
Updated: Tue, Jul-Tue-2020 4:52pm
Partly cloudy
Partly cloudy
 Wind from S
Wind: S 17 mph , 28 km/h, Gust: 26 mph , 43 km/h
Temperature: 93°F , 34°C
Heat Index: 103°F , 39°C
Dew Point: 73°F , 23°C
Humidity: 53%
Barometer: 29.79 inHg , 1008.8 hPa
Clouds: Partly cloudy
Visibility: 10 miles , 16 km
Cloud details: Partly cloudy 17000 ft
Partly cloudy 25000 ft
2020/07/14 21:52 KOKC 142152Z 17015G23KT 10SM SCT170 SCT250 34/23 A2979 RMK AO2 SLP067 T03390228
KEND - Enid/Vance Afb, Oklahoma
Updated: Tue, Jul-Tue-2020 4:56pm
Few Clouds
Few Clouds
 Wind from SSE
Wind: SSE 17 mph , 28 km/h
Temperature: 99°F , 37°C
Heat Index: 109°F , 43°C
Dew Point: 72°F , 22°C
Humidity: 42%
Barometer: 29.77 inHg , 1008.1 hPa
Clouds: Few Clouds
Visibility: 10 miles , 16 km
Cloud details: Few Clouds 21000 ft
2020/07/14 21:56 KEND 142156Z AUTO 15015KT 10SM FEW210 37/22 A2977 RMK AO2 SLP065 T03710220 $
KFDR - Frederick/Altus, Oklahoma
Updated: Tue, Jul-Tue-2020 4:53pm
Clear
Clear
 Wind from SSE
Wind: SSE 22 mph , 35 km/h, Gust: 30 mph , 48 km/h
Temperature: 109°F , 43°C
Dew Point: 59°F , 15°C
Humidity: 19%
Barometer: 29.70 inHg , 1005.8 hPa
Clouds: Clear
Visibility: 10 miles , 16 km
2020/07/14 21:53 KFDR 142153Z AUTO 15019G26KT 10SM CLR 43/15 A2970 RMK AO2 PK WND 15026/2150 SLP032 T04280150
 
KOUN - Norman, Oklahoma
Updated: Tue, Jul-Tue-2020 4:47pm
Clear
Clear
 Wind from SSE
Wind: SSE 17 mph , 28 km/h, Gust: 23 mph , 37 km/h
Temperature: 95°F , 35°C
Heat Index: 105°F , 41°C
Dew Point: 73°F , 23°C
Humidity: 50%
Barometer: 29.78 inHg , 1008.5 hPa
Clouds: Clear
Visibility: 10 miles , 16 km
2020/07/14 21:47 KOUN 142147Z 16015G20KT 10SM CLR 35/23 A2978
KTIK - Tinker Afb, Oklahoma
Updated: Tue, Jul-Tue-2020 4:56pm
Few Clouds
Few Clouds
 Wind from S
Wind: S 15 mph , 24 km/h, Gust: 21 mph , 33 km/h
Temperature: 93°F , 34°C
Heat Index: 100°F , 38°C
Dew Point: 72°F , 22°C
Humidity: 49%
Barometer: 29.80 inHg , 1009.1 hPa
Clouds: Few Clouds
Visibility: 10 miles , 16 km
Cloud details: Few Clouds 17000 ft
2020/07/14 21:56 KTIK 142156Z AUTO 17013G18KT 10SM FEW170 34/22 A2980 RMK AO2 SLP081 T03370224
KGOK - Guthrie, Oklahoma
Updated: Tue, Jul-Tue-2020 4:53pm
Clear
Clear
 Wind from S
Wind: S 12 mph , 19 km/h
Temperature: 93°F , 34°C
Heat Index: 103°F , 39°C
Dew Point: 73°F , 23°C
Humidity: 53%
Barometer: 29.77 inHg , 1008.1 hPa
Clouds: Clear
Visibility: 10 miles , 16 km
2020/07/14 21:53 KGOK 142153Z AUTO 18010KT 10SM CLR 34/23 A2977 RMK AO2 SLP067 T03440228
 
KSNL - Shawnee, Oklahoma
Updated: Tue, Jul-Tue-2020 4:55pm
Clear
Clear
 Wind from S
Wind: S 16 mph , 26 km/h, Gust: 28 mph , 44 km/h
Temperature: 93°F , 34°C
Heat Index: 103°F , 39°C
Dew Point: 73°F , 23°C
Humidity: 53%
Barometer: 29.80 inHg , 1009.1 hPa
Clouds: Clear
Visibility: 10 miles , 16 km
2020/07/14 21:55 KSNL 142155Z AUTO 18014G24KT 10SM CLR 34/23 A2980 RMK AO2 T03420231
KCQB - Chandler, Oklahoma
Updated: Tue, Jul-Tue-2020 4:55pm
Clear
Clear
 Wind from S
Wind: S 12 mph , 19 km/h
Temperature: 93°F , 34°C
Heat Index: 105°F , 41°C
Dew Point: 75°F , 24°C
Humidity: 56%
Barometer: 29.80 inHg , 1009.1 hPa
Clouds: Clear
Visibility: 10 miles , 16 km
2020/07/14 21:55 KCQB 142155Z AUTO 17010KT 10SM CLR 34/24 A2980 RMK AO2 T03420238
KPVJ - Pauls Valley, Oklahoma
Updated: Tue, Jul-Tue-2020 4:55pm
Clear
Clear
 Wind from SSE
Wind: SSE 8 mph , 13 km/h, Gust: 17 mph , 28 km/h
Temperature: 93°F , 34°C
Heat Index: 105°F , 41°C
Dew Point: 75°F , 24°C
Humidity: 56%
Barometer: 29.80 inHg , 1009.1 hPa
Clouds: Clear
Visibility: 10 miles , 16 km
2020/07/14 21:55 KPVJ 142155Z AUTO 16007G15KT 10SM CLR 34/24 A2980 RMK AO2 T03410235
 
KEND - Enid/Vance Afb, Oklahoma
Updated: Tue, Jul-Tue-2020 4:56pm
Few Clouds
Few Clouds
 Wind from SSE
Wind: SSE 17 mph , 28 km/h
Temperature: 99°F , 37°C
Heat Index: 109°F , 43°C
Dew Point: 72°F , 22°C
Humidity: 42%
Barometer: 29.77 inHg , 1008.1 hPa
Clouds: Few Clouds
Visibility: 10 miles , 16 km
Cloud details: Few Clouds 21000 ft
2020/07/14 21:56 KEND 142156Z AUTO 15015KT 10SM FEW210 37/22 A2977 RMK AO2 SLP065 T03710220 $
KSWO - Stillwater, Oklahoma
Updated: Tue, Jul-Tue-2020 4:53pm
Clear
Clear
 Wind from S
Wind: S 13 mph , 20 km/h
Temperature: 95°F , 35°C
Heat Index: 105°F , 41°C
Dew Point: 73°F , 23°C
Humidity: 50%
Barometer: 29.78 inHg , 1008.5 hPa
Clouds: Clear
Visibility: 10 miles , 16 km
2020/07/14 21:53 KSWO 142153Z 18011KT 10SM CLR 35/23 A2978 RMK AO2 SLP070 T03500228
KFSI - Fort Sill, Oklahoma
Updated: Tue, Jul-Tue-2020 4:56pm
Clear
Clear
 Wind from S
Wind: S 21 mph , 33 km/h, Gust: 28 mph , 44 km/h
Temperature: 100°F , 38°C
Dew Point: 66°F , 19°C
Humidity: 33%
Barometer: 29.75 inHg , 1007.5 hPa
Clouds: Clear
Visibility: 10 miles , 16 km
2020/07/14 21:56 KFSI 142156Z AUTO 17018G24KT 10SM CLR 38/19 A2975 RMK AO2 SLP058 T03770191 $
 
KDUC - Duncan, Oklahoma
Updated: Tue, Jul-Tue-2020 4:55pm
Clear
Clear
 Wind from SSE
Wind: SSE 14 mph , 22 km/h, Gust: 21 mph , 33 km/h
Temperature: 97°F , 36°C
Heat Index: 106°F , 41°C
Dew Point: 72°F , 22°C
Humidity: 44%
Barometer: 29.80 inHg , 1009.1 hPa
Clouds: Clear
Visibility: 10 miles , 16 km
2020/07/14 21:55 KDUC 142155Z AUTO 15012G18KT 10SM CLR 36/22 A2980 RMK AO2 T03590224
KOKM - Okmulgee, Oklahoma
Updated: Tue, Jul-Tue-2020 4:55pm
Clear
Clear
 Wind from S
Wind: S 14 mph , 22 km/h, Gust: 21 mph , 33 km/h
Temperature: 95°F , 35°C
Heat Index: 107°F , 42°C
Dew Point: 75°F , 24°C
Humidity: 53%
Barometer: 29.80 inHg , 1009.1 hPa
Clouds: Clear
Visibility: 10 miles , 16 km
2020/07/14 21:55 KOKM 142155Z AUTO 18012G18KT 10SM CLR 35/24 A2980 RMK AO2 T03460243
KMLC - Mcalester, Oklahoma
Updated: Tue, Jul-Tue-2020 4:53pm
Clear
Clear
 Wind from S
Wind: S 10 mph , 17 km/h, Gust: 22 mph , 35 km/h
Temperature: 93°F , 34°C
Heat Index: 103°F , 39°C
Dew Point: 73°F , 23°C
Humidity: 53%
Barometer: 29.83 inHg , 1010.2 hPa
Clouds: Clear
Visibility: 10 miles , 16 km
2020/07/14 21:53 KMLC 142153Z AUTO 17009G19KT 130V220 10SM CLR 34/23 A2983 RMK AO2 SLP090 T03390228
 
KMKO - Muskogee, Oklahoma
Updated: Tue, Jul-Tue-2020 4:53pm
Clear
Clear
 Wind from S
Wind: S 10 mph , 17 km/h, Gust: 18 mph , 30 km/h
Temperature: 95°F , 35°C
Heat Index: 107°F , 42°C
Dew Point: 75°F , 24°C
Humidity: 53%
Barometer: 29.82 inHg , 1009.8 hPa
Clouds: Clear
Visibility: 10 miles , 16 km
2020/07/14 21:53 KMKO 142153Z AUTO 17009G16KT 10SM CLR 35/24 A2982 RMK AO2 SLP088 T03500244
KRVS - Tulsa, Oklahoma
Updated: Tue, Jul-Tue-2020 4:53pm
Clear
Clear
 Wind from S
Wind: S 14 mph , 22 km/h
Temperature: 99°F , 37°C
Heat Index: 113°F , 45°C
Dew Point: 75°F , 24°C
Humidity: 47%
Barometer: 29.79 inHg , 1008.8 hPa
Clouds: Clear
Visibility: 10 miles , 16 km
2020/07/14 21:53 KRVS 142153Z 18012KT 10SM CLR 37/24 A2979 RMK AO2 SLP087 T03670239
KGZL - Stigler, Oklahoma
Updated: Tue, Jul-Tue-2020 4:35pm
Clear
Clear
 Wind from SSE
Wind: SSE 14 mph , 22 km/h, Gust: 18 mph , 30 km/h
Temperature: 97°F , 36°C
Dew Point: 66°F , 19°C
Humidity: 37%
Barometer: 29.83 inHg , 1010.2 hPa
Clouds: Clear
Visibility: 10 miles , 16 km
2020/07/14 21:35 KGZL 142135Z AUTO 16012G16KT 10SM CLR 36/19 A2983 RMK AO2
 
KADH - Ada, Oklahoma
Updated: Tue, Jul-Tue-2020 4:30pm
Clear
Clear
 Wind from S
Wind: S 15 mph , 24 km/h, Gust: 21 mph , 33 km/h
Temperature: 93°F , 34°C
Heat Index: 103°F , 39°C
Dew Point: 73°F , 23°C
Humidity: 53%
Barometer: 29.84 inHg , 1010.5 hPa
Clouds: Clear
Visibility: 10 miles , 16 km
2020/07/14 21:30 KADH 142130Z AUTO 17013G18KT 10SM CLR 34/23 A2984 RMK AO2
KAQR - Atoka, Oklahoma
Updated: Tue, Jul-Tue-2020 4:55pm
Clear
Clear
 Wind from SSE
Wind: SSE 8 mph , 13 km/h, Gust: 18 mph , 30 km/h
Temperature: 97°F , 36°C
Heat Index: 106°F , 41°C
Dew Point: 72°F , 22°C
Humidity: 44%
Barometer: 29.84 inHg , 1010.5 hPa
Clouds: Clear
Visibility: 10 miles , 16 km
2020/07/14 21:55 KAQR 142155Z AUTO 16007G16KT 10SM CLR 36/22 A2984 RMK AO2 T03630222 PNO
KJSV - Sallisaw, Oklahoma
Updated: Tue, Jul-Tue-2020 4:55pm
Clear
Clear
 Wind from SSE
Wind: SSE 13 mph , 20 km/h, Gust: 18 mph , 30 km/h
Temperature: 97°F , 36°C
Heat Index: 106°F , 41°C
Dew Point: 72°F , 22°C
Humidity: 44%
Barometer: 29.84 inHg , 1010.5 hPa
Clouds: Clear
Visibility: 10 miles , 16 km
2020/07/14 21:55 KJSV 142155Z AUTO 16011G16KT 10SM CLR 36/22 A2984 RMK AO2
 
KTQH - Tahlequah, Oklahoma
Updated: Tue, Jul-Tue-2020 4:55pm
Clear
Clear
 Wind from S
Wind: S 10 mph , 17 km/h
Temperature: 95°F , 35°C
Heat Index: 105°F , 41°C
Dew Point: 73°F , 23°C
Humidity: 50%
Barometer: 29.85 inHg , 1010.8 hPa
Clouds: Clear
Visibility: 10 miles , 16 km
2020/07/14 21:55 KTQH 142155Z AUTO 17009KT 10SM CLR 35/23 A2985 RMK AO2
KGCM - Claremore, Oklahoma
Updated: Tue, Jul-Tue-2020 4:55pm
Clear
Clear
 Wind from S
Wind: S 8 mph , 13 km/h
Temperature: 91°F , 33°C
Dew Point: 63°F , 17°C
Humidity: 38%
Barometer: 29.82 inHg , 1009.8 hPa
Clouds: Clear
Visibility: 10 miles , 16 km
2020/07/14 21:55 KGCM 142155Z AUTO 18007KT 10SM CLR 33/17 A2982 RMK AO2
KRKR - Poteau, Oklahoma
Updated: Tue, Jul-Tue-2020 4:55pm
Clear
Clear
 Wind from SSE
Wind: SSE 8 mph , 13 km/h
Temperature: 95°F , 35°C
Heat Index: 101°F , 38°C
Dew Point: 70°F , 21°C
Humidity: 44%
Barometer: 29.85 inHg , 1010.8 hPa
Clouds: Clear
Visibility: 10 miles , 16 km
2020/07/14 21:55 KRKR 142155Z AUTO 15007KT 10SM CLR 35/21 A2985 RMK AO2
 
KGMJ - Grove, Oklahoma
Updated: Tue, Jul-Tue-2020 4:55pm
Clear
Clear
 Wind from SE
Wind: SE 3 mph , 6 km/h
Temperature: 88°F , 31°C
Heat Index: 96°F , 36°C
Dew Point: 73°F , 23°C
Humidity: 62%
Barometer: 29.86 inHg , 1011.2 hPa
Clouds: Clear
2020/07/14 21:55 KGMJ 142155Z AUTO 14003KT CLR 31/23 A2986 RMK AO2 PWINO
K4O4 - Idabel, Oklahoma
Updated: Tue, Jul-Tue-2020 4:55pm
Clear
Clear
 Wind from SSE
Wind: SSE 12 mph , 19 km/h
Temperature: 91°F , 33°C
Heat Index: 95°F , 35°C
Dew Point: 68°F , 20°C
Humidity: 46%
Barometer: 29.86 inHg , 1011.2 hPa
Clouds: Clear
Visibility: 10 miles , 16 km
2020/07/14 21:55 K4O4 142155Z AUTO 16010KT 10SM CLR 33/20 A2986 RMK AO2
KHHW - Hugo, Oklahoma
Updated: Wed, Jun-Wed-2019 9:18am
NOT Current
Clear
Clear
 Wind from WSW
Wind: WSW 8 mph , 13 km/h
Temperature: 70°F , 21°C
Dew Point: 61°F , 16°C
Humidity: 73%
Barometer: 30.00 inHg , 1015.9 hPa
Clouds: Clear
Visibility: 10 miles , 16 km
2019/06/12 14:18 KHHW 121418Z 24007KT 10SM CLR 21/16 A3000
 
KDUA - Durant, Oklahoma
Updated: Tue, Jul-Tue-2020 4:55pm
Clear
Clear
 Wind from S
Wind: S 12 mph , 19 km/h, Gust: 17 mph , 28 km/h
Temperature: 95°F , 35°C
Heat Index: 100°F , 38°C
Dew Point: 68°F , 20°C
Humidity: 41%
Barometer: 29.85 inHg , 1010.8 hPa
Clouds: Clear
Visibility: 10 miles , 16 km
2020/07/14 21:55 KDUA 142155Z AUTO 17010G15KT 10SM CLR 35/20 A2985 RMK AO2
KSTJ - St. Joseph, Missouri
Updated: Tue, Jul-Tue-2020 4:53pm
Partly cloudy
Partly cloudy
 Wind from SE
Wind: SE 10 mph , 17 km/h
Temperature: 91°F , 33°C
Heat Index: 102°F , 39°C
Dew Point: 75°F , 24°C
Humidity: 59%
Barometer: 29.86 inHg , 1011.2 hPa
Clouds: Partly cloudy
Visibility: 10 miles , 16 km
Cloud details: Partly cloudy 4000 ft
2020/07/14 21:53 KSTJ 142153Z AUTO 14009KT 10SM SCT040 33/24 A2986 RMK AO2 SLP102 T03280239 TSNO
KMCI - Kansas City/Intl, Missouri
Updated: Tue, Jul-Tue-2020 4:53pm
Partly cloudy
Partly cloudy
 Wind from SE
Wind: SE 12 mph , 19 km/h
Temperature: 91°F , 33°C
Heat Index: 102°F , 39°C
Dew Point: 75°F , 24°C
Humidity: 59%
Barometer: 29.87 inHg , 1011.5 hPa
Clouds: Partly cloudy
Visibility: 10 miles , 16 km
Cloud details: Few Clouds 3600 ft
Partly cloudy 11000 ft
Partly cloudy 17000 ft
2020/07/14 21:53 KMCI 142153Z 13010KT 10SM FEW036 SCT110 SCT170 33/24 A2987 RMK AO2 SLP102 T03330244
 
KMKC - Kansas City/Dntn, Missouri
Updated: Tue, Jul-Tue-2020 4:54pm
Few Clouds
Few Clouds
 Wind from ESE
Wind: ESE 10 mph , 17 km/h, Gust: 18 mph , 30 km/h
Temperature: 91°F , 33°C
Heat Index: 100°F , 38°C
Dew Point: 73°F , 23°C
Humidity: 56%
Barometer: 29.85 inHg , 1010.8 hPa
Clouds: Few Clouds
Visibility: 10 miles , 16 km
Cloud details: Few Clouds 3700 ft
2020/07/14 21:54 KMKC 142154Z 11009G16KT 10SM FEW037 33/23 A2985 RMK AO2 SLP098 T03330233
KCDJ - Chillicothe, Missouri
Updated: Tue, Jul-Tue-2020 4:52pm

 Wind from SE
Wind: SE 8 mph , 13 km/h
Temperature: 90°F , 32°C
Heat Index: 101°F , 38°C
Dew Point: 75°F , 24°C
Humidity: 63%
Barometer: 29.90 inHg , 1012.5 hPa
2020/07/14 21:52 KCDJ 142152Z AUTO 14007KT 32/24 A2990 RMK AO1 SLP109 T03220239
KIRK - Kirksville, Missouri
Updated: Tue, Jul-Tue-2020 4:55pm
Mostly cloudy
Mostly cloudy
 Wind from S
Wind: S 13 mph , 20 km/h, Gust: 20 mph , 31 km/h
Temperature: 90°F , 32°C
Heat Index: 99°F , 37°C
Dew Point: 73°F , 23°C
Humidity: 59%
Barometer: 29.93 inHg , 1013.5 hPa
Clouds: Mostly cloudy
Visibility: 10 miles , 16 km
Cloud details: Mostly cloudy 4000 ft
Mostly cloudy 5000 ft
2020/07/14 21:55 KIRK 142155Z AUTO 17011G17KT 10SM BKN040 BKN050 32/23 A2993 RMK AO2 SLP129 T03220228
 
KSZL - Whiteman Afb, Missouri
Updated: Tue, Jul-Tue-2020 4:56pm
Mostly cloudy
Mostly cloudy
 Wind from SE
Wind: SE 9 mph , 15 km/h
Temperature: 90°F , 32°C
Heat Index: 107°F , 42°C
Dew Point: 79°F , 26°C
Humidity: 71%
Barometer: 29.85 inHg , 1010.8 hPa
Clouds: Mostly cloudy
Visibility: 10 miles , 16 km
Cloud details: Mostly cloudy 20000 ft
2020/07/14 21:56 KSZL 142156Z 14008KT 10SM BKN200 32/26 A2985 RMK AO2A SLP102 T03210256 $
KDMO - Sedalia, Missouri
Updated: Tue, Jul-Tue-2020 4:53pm
Clear
Clear
 Wind from SE
Wind: SE 15 mph , 24 km/h
Temperature: 90°F , 32°C
Heat Index: 99°F , 37°C
Dew Point: 73°F , 23°C
Humidity: 59%
Barometer: 29.90 inHg , 1012.5 hPa
Clouds: Clear
Visibility: 10 miles , 16 km
2020/07/14 21:53 KDMO 142153Z AUTO 13013KT 10SM CLR 32/23 A2990 RMK AO2 SLP117 T03170228
KGLY - Clinton, Missouri
Updated: Mon, May-Mon-2020 3:55pm
NOT Current
Few Clouds
Few Clouds
 Wind from S
Wind: S 16 mph , 26 km/h, Gust: 23 mph , 37 km/h
Temperature: 81°F , 27°C
Heat Index: 84°F , 29°C
Dew Point: 68°F , 20°C
Humidity: 66%
Barometer: 29.83 inHg , 1010.2 hPa
Clouds: Few Clouds
Visibility: 10 miles , 16 km
Cloud details: Few Clouds 4000 ft
2020/05/25 20:55 KGLY 252055Z AUTO 17014G20KT 10SM FEW040 27/20 A2983 RMK AO2 LTG DSNT S-W
 
KCOU - Columbia, Missouri
Updated: Tue, Jul-Tue-2020 4:54pm
Clear
Clear
 Wind from SE
Wind: SE 6 mph , 9 km/h
Temperature: 86°F , 30°C
Heat Index: 93°F , 34°C
Dew Point: 73°F , 23°C
Humidity: 66%
Barometer: 29.94 inHg , 1013.9 hPa
Clouds: Clear
Visibility: 10 miles , 16 km
2020/07/14 21:54 KCOU 142154Z 14005KT 10SM CLR 30/23 A2994 RMK AO2 SLP129 T03000228
KJEF - Jefferson City, Missouri
Updated: Tue, Jul-Tue-2020 4:53pm
Clear
Clear
 Wind from SE
Wind: SE 10 mph , 17 km/h
Temperature: 90°F , 32°C
Heat Index: 96°F , 36°C
Dew Point: 70°F , 21°C
Humidity: 52%
Barometer: 29.91 inHg , 1012.9 hPa
Clouds: Clear
Visibility: 10 miles , 16 km
2020/07/14 21:53 KJEF 142153Z 13009KT 10SM CLR 32/21 A2991 RMK AO2 SLP114 T03170211
KVIH - Vichy/Rolla, Missouri
Updated: Tue, Jul-Tue-2020 4:53pm
Clear
Clear
 Wind from SE
Wind: SE 6 mph , 9 km/h
Temperature: 84°F , 29°C
Heat Index: 89°F , 32°C
Dew Point: 72°F , 22°C
Humidity: 66%
Barometer: 29.97 inHg , 1014.9 hPa
Clouds: Clear
Visibility: 10 miles , 16 km
2020/07/14 21:53 KVIH 142153Z AUTO 14005KT 10SM CLR 29/22 A2997 RMK AO2 SLP135 T02940222
 
KTBN - Fort Leonard Wood, Missouri
Updated: Tue, Jul-Tue-2020 4:56pm
Clear
Clear
 Wind from SE
Wind: SE 13 mph , 20 km/h
Temperature: 91°F , 33°C
Heat Index: 96°F , 36°C
Dew Point: 70°F , 21°C
Humidity: 49%
Barometer: 29.94 inHg , 1013.9 hPa
Clouds: Clear
Visibility: 10 miles , 16 km
2020/07/14 21:56 KTBN 142156Z AUTO 13011KT 10SM CLR 33/21 A2994 RMK AO2 SLP129 T03270209
KJLN - Joplin, Missouri
Updated: Tue, Jul-Tue-2020 4:53pm
Clear
Clear
 Wind from S
Wind: S 14 mph , 22 km/h
Temperature: 91°F , 33°C
Heat Index: 98°F , 37°C
Dew Point: 72°F , 22°C
Humidity: 52%
Barometer: 29.86 inHg , 1011.2 hPa
Clouds: Clear
Visibility: 10 miles , 16 km
2020/07/14 21:53 KJLN 142153Z 18012KT 10SM CLR 33/22 A2986 RMK AO2 SLP098 T03280222
KHFJ - Monett, Missouri
Updated: Tue, Jul-Tue-2020 4:55pm
Partly cloudy
Partly cloudy
 Wind from S
Wind: S 14 mph , 22 km/h
Temperature: 93°F , 34°C
Heat Index: 99°F , 37°C
Dew Point: 70°F , 21°C
Humidity: 47%
Barometer: 29.89 inHg , 1012.2 hPa
Clouds: Partly cloudy
Visibility: 10 miles , 16 km
Cloud details: Partly cloudy 5500 ft
2020/07/14 21:55 KHFJ 142155Z AUTO 17012KT 10SM SCT055 34/21 A2989 RMK AO2
 
KSGF - Springfield, Missouri
Updated: Tue, Jul-Tue-2020 4:52pm
Clear
Clear
 Wind from SSE
Wind: SSE 18 mph , 30 km/h, Gust: 28 mph , 44 km/h
Temperature: 91°F , 33°C
Heat Index: 100°F , 38°C
Dew Point: 73°F , 23°C
Humidity: 56%
Barometer: 29.90 inHg , 1012.5 hPa
Clouds: Clear
Visibility: 10 miles , 16 km
2020/07/14 21:52 KSGF 142152Z 15016G24KT 10SM CLR 33/23 A2990 RMK AO2 PK WND 13027/2103 SLP109 T03330228
KBBG - Branson, Missouri
Updated: Tue, Jul-Tue-2020 4:45pm
Partly cloudy
Partly cloudy
 Wind from SE
Wind: SE 15 mph , 24 km/h, Gust: 23 mph , 37 km/h
Temperature: 91°F , 33°C
Heat Index: 102°F , 39°C
Dew Point: 75°F , 24°C
Humidity: 59%
Barometer: 29.94 inHg , 1013.9 hPa
Clouds: Partly cloudy
Visibility: 10 miles , 16 km
Cloud details: Few Clouds 3500 ft
Partly cloudy 20000 ft
2020/07/14 21:45 KBBG 142145Z 13013G20KT 10SM FEW035 SCT200 33/24 A2994
KUNO - West Plains, Missouri
Updated: Tue, Jul-Tue-2020 4:53pm
Partly cloudy
Partly cloudy
 Wind from SSE
Wind: SSE 10 mph , 17 km/h, Gust: 20 mph , 31 km/h
Temperature: 90°F , 32°C
Heat Index: 97°F , 36°C
Dew Point: 72°F , 22°C
Humidity: 55%
Barometer: 29.99 inHg , 1015.6 hPa
Clouds: Partly cloudy
Visibility: 10 miles , 16 km
Cloud details: Partly cloudy 3700 ft
2020/07/14 21:53 KUNO 142153Z AUTO 15009G17KT 10SM SCT037 32/22 A2999 RMK AO2 SLP140 T03220222
 
KFAM - Farmington, Missouri
Updated: Tue, Jul-Tue-2020 4:56pm
Clear
Clear
 Wind from SE
Wind: SE 9 mph , 15 km/h
Temperature: 90°F , 32°C
Heat Index: 93°F , 34°C
Dew Point: 66°F , 19°C
Humidity: 46%
Barometer: 29.99 inHg , 1015.6 hPa
Clouds: Clear
Visibility: 10 miles , 16 km
2020/07/14 21:56 KFAM 142156Z AUTO 14008KT 10SM CLR 32/19 A2999 RMK AO2 SLP154 T03220194
KCGI - Cape Girardeau, Missouri
Updated: Tue, Jul-Tue-2020 4:53pm
Clear
Clear
 Wind from SE
Wind: SE 7 mph , 11 km/h
Temperature: 90°F , 32°C
Heat Index: 91°F , 33°C
Dew Point: 63°F , 17°C
Humidity: 41%
Barometer: 29.97 inHg , 1014.9 hPa
Clouds: Clear
Visibility: 10 miles , 16 km
2020/07/14 21:53 KCGI 142153Z AUTO 14006KT 10SM CLR 32/17 A2997 RMK AO2 SLP144 T03220172
KSTL - St. Louis, Missouri
Updated: Tue, Jul-Tue-2020 4:51pm
Partly cloudy
Partly cloudy
 Wind from SE
Wind: SE 17 mph , 28 km/h, Gust: 24 mph , 39 km/h
Temperature: 91°F , 33°C
Heat Index: 93°F , 34°C
Dew Point: 64°F , 18°C
Humidity: 41%
Barometer: 29.96 inHg , 1014.6 hPa
Clouds: Partly cloudy
Visibility: 10 miles , 16 km
Cloud details: Few Clouds 13000 ft
Partly cloudy 25000 ft
2020/07/14 21:51 KSTL 142151Z 14015G21KT 10SM FEW130 SCT250 33/18 A2996 RMK AO2 SLP133 T03330183
 
KPOF - Popular Bluff, Missouri
Updated: Tue, Jul-Tue-2020 4:53pm
Clear
Clear
 Wind from SE
Wind: SE 9 mph , 15 km/h
Temperature: 91°F , 33°C
Heat Index: 93°F , 34°C
Dew Point: 64°F , 18°C
Humidity: 41%
Barometer: 29.96 inHg , 1014.6 hPa
Clouds: Clear
Visibility: 10 miles , 16 km
2020/07/14 21:53 KPOF 142153Z AUTO 14008KT 10SM CLR 33/18 A2996 RMK AO2 SLP138 T03280178
KSET - St. Charles, Missouri
Updated: Tue, Jul-Tue-2020 4:54pm
Clear
Clear
 Wind from SE
Wind: SE 13 mph , 20 km/h
Temperature: 93°F , 34°C
Heat Index: 96°F , 36°C
Dew Point: 66°F , 19°C
Humidity: 41%
Barometer: 29.94 inHg , 1013.9 hPa
Clouds: Clear
Visibility: 10 miles , 16 km
2020/07/14 21:54 KSET 142154Z AUTO 14011KT 10SM CLR 34/19 A2994 RMK AO2 SLP133 T03390189
KGLD - Goodland, Kansas
Updated: Tue, Jul-Tue-2020 4:53pm
Overcast
Overcast
 Wind from NE
Wind: NE 15 mph , 24 km/h
Temperature: 70°F , 21°C
Dew Point: 63°F , 17°C
Humidity: 78%
Barometer: 30.02 inHg , 1016.6 hPa
Clouds: Overcast
Visibility: 10 miles , 16 km
Cloud details: Overcast 1100 ft
2020/07/14 21:53 KGLD 142153Z AUTO 05013KT 10SM OVC011 21/17 A3002 RMK AO2 SLP129 T02060172
 
KHLC - Hill City, Kansas
Updated: Tue, Jul-Tue-2020 4:53pm
Mostly cloudy
Mostly cloudy
 Wind from NE
Wind: NE 16 mph , 26 km/h
Temperature: 81°F , 27°C
Heat Index: 85°F , 29°C
Dew Point: 70°F , 21°C
Humidity: 70%
Barometer: 29.94 inHg , 1013.9 hPa
Clouds: Mostly cloudy
Visibility: 10 miles , 16 km
Cloud details: Mostly cloudy 3800 ft
2020/07/14 21:53 KHLC 142153Z AUTO 04014KT 10SM BKN038 27/21 A2994 RMK AO2 SLP115 T02670206
KHYS - Hays Muni, Kansas
Updated: Tue, Jul-Tue-2020 4:56pm
Clear
Clear
 Wind from NE
Wind: NE 13 mph , 20 km/h
Temperature: 82°F , 28°C
Heat Index: 86°F , 30°C
Dew Point: 72°F , 22°C
Humidity: 70%
Barometer: 29.90 inHg , 1012.5 hPa
Clouds: Clear
Visibility: 10 miles , 16 km
2020/07/14 21:56 KHYS 142156Z AUTO 05011KT 10SM CLR 28/22 A2990 RMK AO2 RAB15E41 SLP109 T02830222 PNO $
KRSL - Russell, Kansas
Updated: Tue, Jul-Tue-2020 4:53pm
Partly cloudy
Partly cloudy
 Wind from N
Wind: N 6 mph , 9 km/h, Gust: 25 mph , 41 km/h
Temperature: 84°F , 29°C
Heat Index: 88°F , 31°C
Dew Point: 70°F , 21°C
Humidity: 62%
Barometer: 29.89 inHg , 1012.2 hPa
Clouds: Partly cloudy
Visibility: 10 miles , 16 km
Cloud details: Few Clouds 4300 ft
Partly cloudy 11000 ft
2020/07/14 21:53 KRSL 142153Z AUTO 35005G22KT 10SM FEW043 SCT110 29/21 A2989 RMK AO2 SLP105 T02890206
 
KGBD - Great Bend, Kansas
Updated: Tue, Jul-Tue-2020 4:56pm
Mostly cloudy
Mostly cloudy
 Wind from NE
Wind: NE 18 mph , 30 km/h
Temperature: 88°F , 31°C
Heat Index: 96°F , 36°C
Dew Point: 73°F , 23°C
Humidity: 62%
Barometer: 29.87 inHg , 1011.5 hPa
Clouds: Mostly cloudy
Visibility: 10 miles , 16 km
Cloud details: Partly cloudy 4300 ft
Mostly cloudy 5000 ft
2020/07/14 21:56 KGBD 142156Z AUTO 04016KT 10SM SCT043 BKN050 31/23 A2987 RMK AO2 SLP096 T03060233
KDDC - Dodge City, Kansas
Updated: Tue, Jul-Tue-2020 4:52pm
Clear
Clear
 Wind from NNE
Wind: NNE 12 mph , 19 km/h
Temperature: 91°F , 33°C
Heat Index: 98°F , 37°C
Dew Point: 72°F , 22°C
Humidity: 52%
Barometer: 29.87 inHg , 1011.5 hPa
Clouds: Clear
Visibility: 10 miles , 16 km
2020/07/14 21:52 KDDC 142152Z AUTO 02010KT 10SM CLR 33/22 A2987 RMK AO2 SLP078 T03280222
KPTT - Pratt Indust, Kansas
Updated: Tue, Jul-Tue-2020 4:55pm
Mostly cloudy
Mostly cloudy
 Wind from E
Wind: E 7 mph , 11 km/h
Temperature: 91°F , 33°C
Heat Index: 98°F , 37°C
Dew Point: 72°F , 22°C
Humidity: 52%
Barometer: 29.85 inHg , 1010.8 hPa
Clouds: Mostly cloudy
Visibility: 10 miles , 16 km
Cloud details: Partly cloudy 4000 ft
Mostly cloudy 4600 ft
2020/07/14 21:55 KPTT 142155Z AUTO 08006KT 10SM SCT040 BKN046 33/22 A2985 RMK AO2 T03300219
 
KSLN - Salina, Kansas
Updated: Tue, Jul-Tue-2020 4:53pm
Mostly cloudy
Mostly cloudy
 Wind from N
Wind: N 14 mph , 22 km/h
Temperature: 88°F , 31°C
Heat Index: 96°F , 36°C
Dew Point: 73°F , 23°C
Humidity: 62%
Barometer: 29.85 inHg , 1010.8 hPa
Clouds: Mostly cloudy
Visibility: 10 miles , 16 km
Cloud details: Mostly cloudy 5000 ft
2020/07/14 21:53 KSLN 142153Z 36012KT 10SM BKN050 31/23 A2985 RMK AO2 SLP092 T03110228
KHUT - Hutchinson, Kansas
Updated: Tue, Jul-Tue-2020 4:52pm
Mostly cloudy
Mostly cloudy
 Wind from ENE
Wind: ENE 7 mph , 11 km/h
Temperature: 91°F , 33°C
Heat Index: 102°F , 39°C
Dew Point: 75°F , 24°C
Humidity: 59%
Barometer: 29.83 inHg , 1010.2 hPa
Clouds: Mostly cloudy
Visibility: 10 miles , 16 km
Cloud details: Partly cloudy 3900 ft
Mostly cloudy 4900 ft
2020/07/14 21:52 KHUT 142152Z 06006KT 10SM SCT039 BKN049 33/24 A2983 RMK AO2 SLP076 T03280239
KGCK - Garden City, Kansas
Updated: Tue, Jul-Tue-2020 4:54pm
Clear
Clear
 Wind from ENE
Wind: ENE 15 mph , 24 km/h, Gust: 26 mph , 43 km/h
Temperature: 88°F , 31°C
Heat Index: 93°F , 34°C
Dew Point: 70°F , 21°C
Humidity: 55%
Barometer: 29.89 inHg , 1012.2 hPa
Clouds: Clear
Visibility: 10 miles , 16 km
2020/07/14 21:54 KGCK 142154Z 06013G23KT 10SM CLR 31/21 A2989 RMK AO2 SLP080 T03110206
 
KP28 - Medicine Lodge, Kansas
Updated: Tue, Jul-Tue-2020 4:56pm

 Wind from E
Wind: E 7 mph , 11 km/h
Temperature: 93°F , 34°C
Heat Index: 103°F , 39°C
Dew Point: 73°F , 23°C
Humidity: 53%
Barometer: 29.80 inHg , 1009.1 hPa
2020/07/14 21:56 KP28 142156Z AUTO 09006KT 34/23 A2980 RMK AO1 SLP071 T03440228
KICT - Wichita, Kansas
Updated: Tue, Jul-Tue-2020 4:53pm
Partly cloudy
Partly cloudy
 Wind from SE
Wind: SE 6 mph , 9 km/h
Temperature: 95°F , 35°C
Heat Index: 105°F , 41°C
Dew Point: 73°F , 23°C
Humidity: 50%
Barometer: 29.82 inHg , 1009.8 hPa
Clouds: Partly cloudy
Visibility: 10 miles , 16 km
Cloud details: Partly cloudy 5000 ft
Partly cloudy 25000 ft
2020/07/14 21:53 KICT 142153Z 13005KT 10SM R01L/P6000FT SCT050 SCT250 35/23 A2982
KRSL - Russell, Kansas
Updated: Tue, Jul-Tue-2020 4:53pm
Partly cloudy
Partly cloudy
 Wind from N
Wind: N 6 mph , 9 km/h, Gust: 25 mph , 41 km/h
Temperature: 84°F , 29°C
Heat Index: 88°F , 31°C
Dew Point: 70°F , 21°C
Humidity: 62%
Barometer: 29.89 inHg , 1012.2 hPa
Clouds: Partly cloudy
Visibility: 10 miles , 16 km
Cloud details: Few Clouds 4300 ft
Partly cloudy 11000 ft
2020/07/14 21:53 KRSL 142153Z AUTO 35005G22KT 10SM FEW043 SCT110 29/21 A2989 RMK AO2 SLP105 T02890206
 
KMHK - Manhattan, Kansas
Updated: Tue, Jul-Tue-2020 4:52pm
Mostly cloudy
Mostly cloudy
 Wind from ENE
Wind: ENE 10 mph , 17 km/h
Temperature: 90°F , 32°C
Heat Index: 101°F , 38°C
Dew Point: 75°F , 24°C
Humidity: 63%
Barometer: 29.83 inHg , 1010.2 hPa
Clouds: Mostly cloudy
Visibility: 10 miles , 16 km
Cloud details: Mostly cloudy 5500 ft
2020/07/14 21:52 KMHK 142152Z 07009KT 10SM BKN055 32/24 A2983 RMK AO2 SLP089 T03220239
KEMP - Emporia, Kansas
Updated: Tue, Jul-Tue-2020 4:53pm
Mostly cloudy
Mostly cloudy
 Wind from SE
Wind: SE 8 mph , 13 km/h
Temperature: 91°F , 33°C
Heat Index: 102°F , 39°C
Dew Point: 75°F , 24°C
Humidity: 59%
Barometer: 29.83 inHg , 1010.2 hPa
Clouds: Mostly cloudy
Visibility: 9 miles , 14 km
Cloud details: Mostly cloudy 4400 ft
2020/07/14 21:53 KEMP 142153Z AUTO 13007KT 9SM BKN044 33/24 A2983 RMK AO2 SLP090 T03280239
KTOP - Topeka, Kansas
Updated: Tue, Jul-Tue-2020 4:53pm
Partly cloudy
Partly cloudy
 Wind from E
Wind: E 10 mph , 17 km/h
Temperature: 90°F , 32°C
Heat Index: 101°F , 38°C
Dew Point: 75°F , 24°C
Humidity: 63%
Barometer: 29.84 inHg , 1010.5 hPa
Clouds: Partly cloudy
Visibility: 10 miles , 16 km
Cloud details: Few Clouds 4100 ft
Partly cloudy 4800 ft
2020/07/14 21:53 KTOP 142153Z 09009KT 10SM FEW041 SCT048 32/24 A2984 RMK AO2 SLP093 T03220244
 
KCNU - Chanute, Kansas
Updated: Tue, Jul-Tue-2020 4:52pm
Clear
Clear
 Wind from S
Wind: S 16 mph , 26 km/h, Gust: 25 mph , 41 km/h
Temperature: 93°F , 34°C
Heat Index: 103°F , 39°C
Dew Point: 73°F , 23°C
Humidity: 53%
Barometer: 29.84 inHg , 1010.5 hPa
Clouds: Clear
Visibility: 10 miles , 16 km
2020/07/14 21:52 KCNU 142152Z AUTO 18014G22KT 10SM CLR 34/23 A2984 RMK AO2 SLP088 T03440228
KLWC - Lawrence, Kansas
Updated: Tue, Jul-Tue-2020 4:52pm
Mostly cloudy
Mostly cloudy
 Wind from ESE
Wind: ESE 9 mph , 15 km/h
Temperature: 90°F , 32°C
Heat Index: 104°F , 40°C
Dew Point: 77°F , 25°C
Humidity: 67%
Barometer: 29.84 inHg , 1010.5 hPa
Clouds: Mostly cloudy
Visibility: 10 miles , 16 km
Cloud details: Mostly cloudy 5000 ft
2020/07/14 21:52 KLWC 142152Z AUTO 11008KT 10SM BKN050 32/25 A2984 RMK AO1 SLP096 T03170250
KPPF - Parsons, Kansas
Updated: Tue, Jul-Tue-2020 4:52pm
Clear
Clear
 Wind from SSE
Wind: SSE 7 mph , 11 km/h
Temperature: 91°F , 33°C
Heat Index: 100°F , 38°C
Dew Point: 73°F , 23°C
Humidity: 56%
Barometer: 29.84 inHg , 1010.5 hPa
Clouds: Clear
Visibility: 10 miles , 16 km
2020/07/14 21:52 KPPF 142152Z AUTO 15006KT 10SM CLR 33/23 A2984 RMK AO2 SLP093 T03280233
 
KIDP - Independence, Kansas
Updated: Tue, Jul-Tue-2020 4:55pm
Clear
Clear
 Wind from SSE
Wind: SSE 10 mph , 17 km/h
Temperature: 90°F , 32°C
Heat Index: 104°F , 40°C
Dew Point: 77°F , 25°C
Humidity: 67%
Barometer: 29.82 inHg , 1009.8 hPa
Clouds: Clear
Visibility: 10 miles , 16 km
2020/07/14 21:55 KIDP 142155Z AUTO 15009KT 10SM CLR 32/25 A2982 RMK AO2 T03200252
KOJC - Olathe, Kansas
Updated: Tue, Jul-Tue-2020 4:53pm
Partly cloudy
Partly cloudy
 Wind from SE
Wind: SE 10 mph , 17 km/h, Gust: 24 mph , 39 km/h
Temperature: 90°F , 32°C
Heat Index: 104°F , 40°C
Dew Point: 77°F , 25°C
Humidity: 67%
Barometer: 29.86 inHg , 1011.2 hPa
Clouds: Partly cloudy
Visibility: 10 miles , 16 km
Cloud details: Partly cloudy 3700 ft
2020/07/14 21:53 KOJC 142153Z 14009G21KT 10SM SCT037 32/25 A2986 RMK AO2 SLP099 T03220250
KCFV - Coffeyville, Kansas
Updated: Tue, Jul-Tue-2020 4:52pm
Clear
Clear
 Wind from SSE
Wind: SSE 12 mph , 19 km/h
Temperature: 90°F , 32°C
Heat Index: 99°F , 37°C
Dew Point: 73°F , 23°C
Humidity: 59%
Barometer: 29.81 inHg , 1009.5 hPa
Clouds: Clear
Visibility: 10 miles , 16 km
2020/07/14 21:52 KCFV 142152Z AUTO 15010KT 10SM CLR 32/23 A2981 RMK AO2 SLP087 T03170233
 
KPTS - Pittsburg, Kansas
Updated: Tue, Jul-Tue-2020 4:55pm
Clear
Clear
 Wind from SSW
Wind: SSW 12 mph , 19 km/h, Gust: 17 mph , 28 km/h
Temperature: 95°F , 35°C
Heat Index: 105°F , 41°C
Dew Point: 73°F , 23°C
Humidity: 50%
Barometer: 29.84 inHg , 1010.5 hPa
Clouds: Clear
Visibility: 10 miles , 16 km
2020/07/14 21:55 KPTS 142155Z AUTO 20010G15KT 10SM CLR 35/23 A2984 RMK AO2 T03460234
KLGA - New York City, New York
Updated: Tue, Jul-Tue-2020 4:51pm
Partly cloudy
Partly cloudy
 Wind from NW
Wind: NW 10 mph , 17 km/h
Temperature: 88°F , 31°C
Dew Point: 57°F , 14°C
Humidity: 35%
Barometer: 29.95 inHg , 1014.2 hPa
Clouds: Partly cloudy
Visibility: 10 miles , 16 km
Cloud details: Partly cloudy 6500 ft
2020/07/14 21:51 KLGA 142151Z 31009KT 10SM SCT065 31/14 A2995 RMK AO2 SLP142 T03060139
KCLT - Charlotte, North Carolina
Updated: Tue, Jul-Tue-2020 4:52pm
Partly cloudy
Partly cloudy
 Wind from varies
Wind: varies 3 mph , 6 km/h
Temperature: 93°F , 34°C
Dew Point: 64°F , 18°C
Humidity: 39%
Barometer: 29.99 inHg , 1015.6 hPa
Clouds: Partly cloudy
Visibility: 10 miles , 16 km
Cloud details: Partly cloudy 6000 ft
Partly cloudy 9000 ft
2020/07/14 21:52 KCLT 142152Z VRB03KT 10SM SCT060 SCT090 34/18 A2999 RMK AO2 SLP146 T03440178
 
KATL - Atlanta, Georgia
Updated: Tue, Jul-Tue-2020 4:52pm
Partly cloudy
Partly cloudy
 Wind from WSW
Wind: WSW 10 mph , 17 km/h
Temperature: 91°F , 33°C
Heat Index: 93°F , 34°C
Dew Point: 64°F , 18°C
Humidity: 41%
Barometer: 30.01 inHg , 1016.3 hPa
Clouds: Partly cloudy
Visibility: 10 miles , 16 km
Cloud details: Partly cloudy 6000 ft
Partly cloudy 9000 ft
2020/07/14 21:52 KATL 142152Z 25009KT 10SM SCT060TCU SCT090 33/18 A3001 RMK AO2 SLP150 TCU OHD-NE T03280183
KORL - Orlando, Florida
Updated: Tue, Jul-Tue-2020 4:53pm
Partly cloudy
Partly cloudy
 Wind from WNW
Wind: WNW 13 mph , 20 km/h
Temperature: 93°F , 34°C
Heat Index: 103°F , 39°C
Dew Point: 73°F , 23°C
Humidity: 53%
Barometer: 29.99 inHg , 1015.6 hPa
Clouds: Partly cloudy
Visibility: 10 miles , 16 km
Cloud details: Few Clouds 4700 ft
Partly cloudy 8000 ft
2020/07/14 21:53 KORL 142153Z 29011KT 10SM FEW047 SCT080 34/23 A2999 RMK AO2 LTG DSNT NE AND SW SLP159 T03440228
KMSP - Minneapolis, Minnesota
Updated: Tue, Jul-Tue-2020 4:53pm
Mostly cloudy
Mostly cloudy
 Wind from NNW
Wind: NNW 9 mph , 15 km/h
Temperature: 70°F , 21°C
Dew Point: 59°F , 15°C
Humidity: 69%
Barometer: 29.93 inHg , 1013.5 hPa
Clouds: Mostly cloudy
Visibility: 10 miles , 16 km
Cloud details: Mostly cloudy 5500 ft
Mostly cloudy 7500 ft
2020/07/14 21:53 KMSP 142153Z 33008KT 10SM BKN055 BKN075 21/15 A2993 RMK AO2 RAB41E52 SLP131 P0001 T02060150
 
KORD - Chicago, Illinois
Updated: Tue, Jul-Tue-2020 4:51pm
Mostly cloudy
Mostly cloudy
 Wind from S
Wind: S 12 mph , 19 km/h, Gust: 21 mph , 33 km/h
Temperature: 84°F , 29°C
Heat Index: 85°F , 29°C
Dew Point: 63°F , 17°C
Humidity: 48%
Barometer: 29.99 inHg , 1015.6 hPa
Clouds: Mostly cloudy
Visibility: 10 miles , 16 km
Cloud details: Few Clouds 12000 ft
Few Clouds 15000 ft
Mostly cloudy 25000 ft
2020/07/14 21:51 KORD 142151Z 17010G18KT 10SM FEW120 FEW150 BKN250 29/17 A2999 RMK AO2 SLP149 T02940167
KDFW - Dallas/Ft Worth, Texas
Updated: Tue, Jul-Tue-2020 4:53pm
Partly cloudy
Partly cloudy
 Wind from S
Wind: S 18 mph , 30 km/h, Gust: 28 mph , 44 km/h
Temperature: 99°F , 37°C
Dew Point: 70°F , 21°C
Humidity: 39%
Barometer: 29.82 inHg , 1009.8 hPa
Clouds: Partly cloudy
Visibility: 10 miles , 16 km
Cloud details: Partly cloudy 22000 ft
2020/07/14 21:53 KDFW 142153Z 18016G24KT 10SM SCT220 37/21 A2982 RMK AO2 SLP086 T03670211
KHOU - Houston, Texas
Updated: Tue, Jul-Tue-2020 4:53pm
Few Clouds
Few Clouds
 Wind from SSW
Wind: SSW 16 mph , 26 km/h
Temperature: 95°F , 35°C
Heat Index: 103°F , 39°C
Dew Point: 72°F , 22°C
Humidity: 47%
Barometer: 29.91 inHg , 1012.9 hPa
Clouds: Few Clouds
Visibility: 10 miles , 16 km
Cloud details: Few Clouds 6000 ft
2020/07/14 21:53 KHOU 142153Z 20014KT 10SM FEW060 35/22 A2991 RMK AO2 SLP132 T03500217
 
KDEN - Denver, Colorado
Updated: Tue, Jul-Tue-2020 4:53pm
Nearby thunderstorm, Mostly cloudy
Nearby thunderstorm, Mostly cloudy
 Wind from SE
Wind: SE 18 mph , 30 km/h, Gust: 23 mph , 37 km/h
Temperature: 75°F , 24°C
Dew Point: 54°F , 12°C
Humidity: 47%
Barometer: 30.09 inHg , 1019 hPa
Summary: Nearby Thunderstorm
Clouds: Mostly cloudy
Visibility: 10 miles , 16 km
Cloud details: Few Clouds 5000 ft
Mostly cloudy 12000 ft
Mostly cloudy 20000 ft
2020/07/14 21:53 KDEN 142153Z 14016G20KT 10SM VCTS FEW050 BKN120CB BKN200 24/12 A3009 RMK AO2 LTG DSNT ALQDS TSB01E21 SLP106 FRQ LTGICCG VC S TS VC S MOV E T02390122
KSFO - San Francisco, California
Updated: Tue, Jul-Tue-2020 4:56pm
Few Clouds
Few Clouds
 Wind from SSW
Wind: SSW 10 mph , 17 km/h
Temperature: 73°F , 23°C
Dew Point: 54°F , 12°C
Humidity: 50%
Barometer: 29.92 inHg , 1013.2 hPa
Clouds: Few Clouds
Visibility: 10 miles , 16 km
Cloud details: Few Clouds 2600 ft
2020/07/14 21:56 KSFO 142156Z 20009KT 10SM FEW026 23/12 A2992 RMK AO2 SLP130 T02280117
KLAX - Los Angeles, California
Updated: Tue, Jul-Tue-2020 4:53pm
Few Clouds
Few Clouds
 Wind from WSW
Wind: WSW 15 mph , 24 km/h
Temperature: 72°F , 22°C
Dew Point: 61°F , 16°C
Humidity: 69%
Barometer: 29.96 inHg , 1014.6 hPa
Clouds: Few Clouds
Visibility: 10 miles , 16 km
Cloud details: Few Clouds 1400 ft
2020/07/14 21:53 KLAX 142153Z 25013KT 10SM FEW014 22/16 A2996 RMK AO2 SLP143 T02220161 $